Latest Coastal Weather Observations for Hogan Island

IDT60701

Issued at 5:32 am EDT Sunday 25 October 2020 (issued every 10 minutes, with the page automatically refreshed every 10 minutes)

About coastal observations | Map of coastal stations | Coastal observations for TAS | Marine services | Other Formats
Station Details ID: 200838 Name: HOGAN ISLAND Lat: -39.22 Lon: 146.98 Height: 116.0 m
Data from the previous 72 hours. | See also: Recent months at Hogan Island
Date/Time
EDT
Wind Sea
Height
m
Swell Vis
km
Cloud Weather Temp
°C
Press
MSL
hPa
Rain since
9am
mm
Dir  Spd
kts
Gust
kts
Height
m
Period
s
Dir
25/05:30am N 23 29 - - - - - - - 9.0 1014.6 1.0
25/05:23am NNE 20 24 - - - - - - - 9.4 1014.8 1.0
25/05:17am SSW 19 25 - - - - - - - 9.5 1014.7 1.0
25/05:15am WSW 20 27 - - - - - - - 9.4 1014.6 1.0
25/05:00am SSW 18 26 - - - - - - - 9.3 - 1.0
25/04:56am NNW 21 28 - - - - - - - 9.3 - 1.0
25/04:48am SW 20 26 - - - - - - - 9.2 - 1.0
25/04:42am W 19 27 - - - - - - - 9.1 - 1.0
25/04:30am SW 25 32 - - - - - - - 9.1 - 1.0
25/04:17am SW 24 34 - - - - - - - 9.2 - 1.0
25/04:00am SW 28 33 - - - - - - - 8.9 - 1.0
25/03:30am SW 27 33 - - - - - - - 9.1 - 1.0
25/03:00am SW 27 32 - - - - - - - 8.9 1012.6 1.0
25/02:30am SW 28 32 - - - - - - - 9.2 - 1.0
25/02:00am SW 28 32 - - - - - - - 9.3 - 1.0
25/01:30am SW 30 35 - - - - - - - 9.7 - 1.0
25/01:00am SW 28 34 - - - - - - - 9.6 - 1.0
25/12:30am WSW 30 36 - - - - - - - 9.7 - 1.0
25/12:00am WSW 32 38 - - - - - - - 10.0 1010.9 1.0
 
Date/Time
EDT
Wind Sea
Height
m
Swell Vis
km
Cloud Weather Temp
°C
Press
MSL
hPa
Rain since
9am
mm
Dir  Spd
kts
Gust
kts
Height
m
Period
s
Dir
24/11:30pm SW 30 35 - - - - - - - 10.2 - 1.0
24/11:00pm WSW 33 39 - - - - - - - 10.0 - 1.0
24/10:30pm WSW 33 38 - - - - - - - 10.2 - 1.0
24/10:00pm WSW 33 37 - - - - - - - 10.3 - 1.0
24/09:30pm WSW 33 39 - - - - - - - 10.5 - 1.0
24/09:00pm WSW 34 43 - - - - - - - 10.3 1009.6 1.0
24/08:30pm WSW 33 39 - - - - - - - 10.3 - 1.0
24/08:00pm WSW 34 40 - - - - - - - 10.3 - 1.0
24/07:30pm WSW 36 42 - - - - - - - 10.4 - 1.0
24/07:00pm WSW 35 40 - - - - - - - 10.8 - 1.0
24/06:30pm WSW 35 41 - - - - - - - 11.2 - 1.0
24/06:00pm WSW 35 41 - - - - - - - 11.6 1006.5 1.0
24/05:30pm WSW 35 41 - - - - - - - 11.9 - 1.0
24/05:00pm WSW 38 45 - - - - - - - 11.4 - 1.0
24/04:30pm WSW 34 39 - - - - - - - 11.3 - 1.0
24/04:00pm WSW 32 38 - - - - - - - 12.5 - 1.0
24/03:30pm WSW 31 36 - - - - - - - 12.4 - 1.0
24/03:00pm WSW 26 31 - - - - - - - 12.3 1006.2 1.0
24/02:30pm WSW 28 32 - - - - - - - 11.9 - 1.0
24/02:00pm WSW 29 33 - - - - - - - 11.5 - 1.0
24/01:30pm WSW 28 33 - - - - - - - 11.3 - 1.0
24/01:00pm WSW 26 31 - - - - - - - 10.9 - 1.0
24/12:30pm WSW 29 33 - - - - - - - 10.6 - 1.0
24/12:00pm WSW 29 34 - - - - - - - 10.7 1004.9 0.6
24/11:30am WSW 27 32 - - - - - - - 10.5 - 0.4
24/11:00am SW 29 34 - - - - - - - 10.9 - 0.0
24/10:30am SW 29 34 - - - - - - - 11.5 - 0.0
24/10:00am SW 28 34 - - - - - - - 11.7 - 0.0
24/09:30am SW 24 29 - - - - - - - 11.6 - 0.0
24/09:00am SW 22 28 - - - - - - - 11.6 1002.9 10.6
24/08:30am SW 25 28 - - - - - - - 11.3 - 10.4
24/08:00am SW 25 29 - - - - - - - 11.9 - 10.4
24/07:30am SW 24 26 - - - - - - - 12.2 - 10.4
24/07:00am SW 20 26 - - - - - - - 12.2 - 10.4
24/06:40am SW 15 25 - - - - - - - 12.7 - 10.0
24/06:30am SSW 13 18 - - - - - - - 12.9 - 9.4
24/06:00am SSW 13 17 - - - - - - - 13.1 1001.0 9.4
24/05:30am SW 17 20 - - - - - - - 13.3 - 8.4
24/05:00am WSW 12 14 - - - - - - - 13.5 - 7.6
24/04:30am NNW 9 11 - - - - - - - 13.9 - 7.6
24/04:00am N 9 12 - - - - - - - 14.1 - 7.4
24/03:30am N 12 17 - - - - - - - 14.5 - 6.8
24/03:00am N 11 17 - - - - - - - 14.3 1001.9 5.2
24/02:30am N 15 18 - - - - - - - 14.8 - 4.0
24/02:00am N 17 22 - - - - - - - 14.7 - 3.0
24/01:30am N 16 21 - - - - - - - 14.9 - 2.2
24/01:00am N 18 21 - - - - - - - 14.6 - 1.8
24/12:30am N 17 19 - - - - - - - 14.5 - 1.8
24/12:00am N 14 17 - - - - - - - 13.7 1003.6 1.6
 
Date/Time
EDT
Wind Sea
Height
m
Swell Vis
km
Cloud Weather Temp
°C
Press
MSL
hPa
Rain since
9am
mm
Dir  Spd
kts
Gust
kts
Height
m
Period
s
Dir
23/11:30pm N 14 15 - - - - - - - 13.4 - 1.4
23/11:00pm N 14 16 - - - - - - - 13.3 - 0.6
23/10:30pm N 13 15 - - - - - - - 13.5 - 0.2
23/10:00pm N 13 14 - - - - - - - 13.5 - 0.2
23/09:30pm N 12 14 - - - - - - - 13.6 - 0.2
23/09:00pm N 13 16 - - - - - - - 13.4 1005.6 0.0
23/08:30pm N 13 15 - - - - - - - 13.4 - 0.0
23/08:00pm N 13 15 - - - - - - - 13.4 - 0.0
23/07:30pm N 13 15 - - - - - - - 13.2 - 0.0
23/07:00pm N 16 18 - - - - - - - 13.2 - 0.0
23/06:30pm N 16 19 - - - - - - - 13.4 - 0.0
23/06:00pm N 16 19 - - - - - - - 13.4 1005.3 0.0
23/05:30pm N 18 21 - - - - - - - 13.8 - 0.0
23/05:00pm N 17 21 - - - - - - - 13.9 - 0.0
23/04:30pm N 14 16 - - - - - - - 14.1 - 0.0
23/04:00pm E 14 16 - - - - - - - 15.0 - 0.0
23/03:30pm ESE 9 11 - - - - - - - 16.1 - 0.0
23/03:00pm ESE 7 9 - - - - - - - 15.1 1008.2 0.0
23/02:30pm N 11 14 - - - - - - - 16.5 - 0.0
23/02:00pm N 9 11 - - - - - - - 15.3 - 0.0
23/01:30pm N 8 10 - - - - - - - 15.1 - 0.0
23/01:00pm N 10 12 - - - - - - - 15.4 - 0.0
23/12:30pm N 15 17 - - - - - - - 15.0 - 0.0
23/12:00pm N 14 16 - - - - - - - 15.4 1008.6 0.0
23/11:30am N 10 11 - - - - - - - 14.5 - 0.0
23/11:00am N 4 6 - - - - - - - 15.1 - 0.0
23/10:30am N 7 9 - - - - - - - 14.9 - 0.0
23/10:00am N 13 15 - - - - - - - 14.1 - 0.0
23/09:30am N 11 12 - - - - - - - 13.6 - 0.0
23/09:00am N 13 16 - - - - - - - 13.1 1010.3 0.0
23/08:30am N 16 18 - - - - - - - 13.3 - 0.0
23/08:00am NE 9 11 - - - - - - - 12.7 - 0.0
23/07:30am ENE 8 10 - - - - - - - 12.6 - 0.0
23/07:00am ENE 10 14 - - - - - - - 12.4 - 0.0
23/06:30am ENE 13 16 - - - - - - - 12.3 - 0.0
23/06:00am N 13 14 - - - - - - - 12.2 1010.1 0.0
23/05:30am N 12 15 - - - - - - - 12.1 - 0.0
23/05:00am N 12 15 - - - - - - - 12.0 - 0.0
23/04:30am N 13 16 - - - - - - - 11.9 - 0.0
23/04:00am N 16 18 - - - - - - - 11.8 - 0.0
23/03:30am N 14 16 - - - - - - - 11.6 - 0.0
23/03:00am N 15 17 - - - - - - - 11.5 1010.9 0.0
23/02:30am N 14 15 - - - - - - - 11.6 - 0.0
23/02:00am N 13 15 - - - - - - - 11.7 - 0.0
23/01:30am N 14 16 - - - - - - - 11.6 - 0.0
23/01:00am N 14 17 - - - - - - - 11.6 - 0.0
23/12:30am N 14 16 - - - - - - - 11.5 - 0.0
23/12:00am N 12 15 - - - - - - - 11.3 1014.4 0.0
 
Date/Time
EDT
Wind Sea
Height
m
Swell Vis
km
Cloud Weather Temp
°C
Press
MSL
hPa
Rain since
9am
mm
Dir  Spd
kts
Gust
kts
Height
m
Period
s
Dir
22/11:30pm N 12 14 - - - - - - - 11.2 - 0.0
22/11:00pm N 12 14 - - - - - - - 11.3 - 0.0
22/10:30pm N 11 14 - - - - - - - 11.1 - 0.0
22/10:00pm N 13 15 - - - - - - - 11.2 - 0.0
22/09:30pm N 13 14 - - - - - - - 11.2 - 0.0
22/09:00pm N 13 15 - - - - - - - 11.0 1015.1 0.0
22/08:30pm N 14 15 - - - - - - - 11.0 - 0.0
22/08:00pm N 11 12 - - - - - - - 11.4 - 0.0
22/07:30pm N 10 11 - - - - - - - 11.7 - 0.0
22/07:00pm E 10 11 - - - - - - - 11.7 - 0.0
22/06:30pm NNE 9 10 - - - - - - - 12.3 - 0.0
22/06:00pm E 9 11 - - - - - - - 12.4 1015.0 0.0
22/05:30pm E 7 9 - - - - - - - 13.6 - 0.0
22/05:00pm NNE 7 9 - - - - - - - 13.3 - 0.0
22/04:30pm SSE 7 9 - - - - - - - 13.8 - 0.0
22/04:00pm NNW 3 5 - - - - - - - 13.9 - 0.0
22/03:30pm N 2 5 - - - - - - - 13.7 - 0.0
22/03:00pm N 2 4 - - - - - - - 13.9 1015.4 0.0
22/02:30pm E 5 7 - - - - - - - 14.0 - 0.0
22/02:00pm WNW 2 6 - - - - - - - 13.7 - 0.0
22/01:30pm NW 3 6 - - - - - - - 13.8 - 0.0
22/12:30pm WNW 6 8 - - - - - - - 14.6 - 0.0
22/12:00pm W 6 8 - - - - - - - 14.5 1016.4 0.0
22/11:30am W 6 8 - - - - - - - 15.2 - 0.0
22/11:00am W 8 9 - - - - - - - 13.7 - 0.0
22/10:30am W 7 8 - - - - - - - 13.3 - 0.0
22/10:00am W 7 8 - - - - - - - 13.3 - 0.0
22/09:30am WNW 8 10 - - - - - - - 12.7 - 0.0
22/09:00am WNW 7 9 - - - - - - - 12.6 1016.7 0.0
22/08:30am WNW 7 8 - - - - - - - 11.9 - 0.0
22/08:00am WNW 6 7 - - - - - - - 11.8 - 0.0
22/07:30am NW 6 7 - - - - - - - 10.9 - 0.0
22/07:00am NNW 5 7 - - - - - - - 11.0 - 0.0
22/06:30am NW 4 6 - - - - - - - 10.2 - 0.0
22/06:00am NW 7 8 - - - - - - - 10.4 1015.6 0.0

Other formats

Comma delimited format used in spreadsheet applications
http://www.bom.gov.au/fwo/IDT60701/IDT60701.94949.axf

JavaScript Object Notation format (JSON) in row-major order
http://www.bom.gov.au/fwo/IDT60701/IDT60701.94949.json

Data quality

Most of these data are generated automatically and are frequently updated. Quality checks on data are not normally performed. It is possible for incorrect values to appear. Refer to information at About Latest Weather Observations and please check the disclaimer before using these data.